createdAt,value
2023-03-06T00:05:05.047Z,2.7
2023-03-06T00:15:06.915Z,2.7
2023-03-06T00:25:08.804Z,2.5
2023-03-06T00:45:12.103Z,2.4
2023-03-06T00:55:13.504Z,2.4
2023-03-06T01:05:14.779Z,2.4
2023-03-06T01:15:16.474Z,2.3
2023-03-06T01:25:17.620Z,1.9
2023-03-06T01:35:19.145Z,1.7
2023-03-06T01:45:21.146Z,1.7
2023-03-06T01:55:22.284Z,1.7
2023-03-06T02:05:23.771Z,1.7
2023-03-06T02:15:25.170Z,1.7
2023-03-06T02:25:26.426Z,1.8
2023-03-06T02:35:27.730Z,1.8
2023-03-06T02:45:29.272Z,1.8
2023-03-06T02:55:31.059Z,1.8
2023-03-06T03:05:32.490Z,1.8
2023-03-06T03:15:33.871Z,1.8
2023-03-06T03:25:35.554Z,1.8
2023-03-06T03:35:37.177Z,1.6
2023-03-06T03:45:38.865Z,1.3
2023-03-06T03:55:40.674Z,1.4
2023-03-06T04:25:45.456Z,1.5
2023-03-06T04:35:47.104Z,1.3
2023-03-06T04:45:48.179Z,1.1
2023-03-06T04:55:49.756Z,1
2023-03-06T05:05:51.536Z,0.9
2023-03-06T05:25:54.914Z,0.7
2023-03-06T05:35:56.115Z,0.8
2023-03-06T05:45:58.098Z,0.9
2023-03-06T05:55:59.563Z,1.1
2023-03-06T06:06:01.361Z,1.2
2023-03-06T06:16:03.382Z,1.2
2023-03-06T06:26:05.012Z,1.3
2023-03-06T06:36:07.045Z,1.3
2023-03-06T06:46:32.281Z,1.5
2023-03-06T06:56:10.646Z,1.6
2023-03-06T07:16:14.145Z,1.7
2023-03-06T07:26:15.396Z,1.9
2023-03-06T07:36:17.031Z,1.9
2023-03-06T07:46:18.197Z,1.9
2023-03-06T07:56:19.799Z,2
2023-03-06T08:06:21.411Z,2.1
2023-03-06T08:16:23.099Z,2.2
2023-03-06T08:26:24.953Z,2.2
2023-03-06T08:36:26.038Z,2
2023-03-06T08:46:28.046Z,1.8
2023-03-06T08:56:29.674Z,1.8
2023-03-06T09:06:30.770Z,2
2023-03-06T09:16:32.302Z,2
2023-03-06T09:26:44.904Z,2
2023-03-06T09:36:45.819Z,2.1
2023-03-06T09:46:36.814Z,2.3
2023-03-06T09:56:37.867Z,2.7
2023-03-06T10:06:39.771Z,2.8
2023-03-06T10:16:41.333Z,2.6
2023-03-06T10:26:43.013Z,2.4
2023-03-06T10:36:44.308Z,2.3
2023-03-06T10:46:45.549Z,2.4
2023-03-06T11:06:48.839Z,2.7
2023-03-06T11:16:50.627Z,2.7
2023-03-06T11:26:52.280Z,3.2
2023-03-06T11:36:53.930Z,3.9
2023-03-06T11:46:55.926Z,4.3
2023-03-06T11:56:57.041Z,3.8
2023-03-06T12:06:58.428Z,3.5
2023-03-06T12:16:59.788Z,3.4
2023-03-06T12:27:01.477Z,3.4
2023-03-06T12:37:02.629Z,3.4
2023-03-06T12:47:04.161Z,3.6
2023-03-06T12:57:05.369Z,5
2023-03-06T13:07:06.804Z,5.8
2023-03-06T13:17:08.350Z,6
2023-03-06T13:27:09.972Z,5
2023-03-06T13:37:11.264Z,4.8
2023-03-06T13:57:14.441Z,4.2
2023-03-06T14:07:16.104Z,4.4
2023-03-06T14:17:18.164Z,4.4
2023-03-06T14:27:19.792Z,4.5
2023-03-06T14:37:21.923Z,5.4
2023-03-06T14:38:05.608Z,5.4
2023-03-06T14:47:30.396Z,5.7
2023-03-06T14:57:31.935Z,5.9
2023-03-06T15:07:33.086Z,5.9
2023-03-06T15:17:35.084Z,6
2023-03-06T15:27:36.706Z,6.2
2023-03-06T15:37:38.764Z,6.1
2023-03-06T15:47:40.057Z,5.8
2023-03-06T15:57:41.730Z,5.4
2023-03-06T16:07:43.565Z,5.2
2023-03-06T16:17:45.276Z,5.1
2023-03-06T16:27:46.347Z,4.8
2023-03-06T16:47:49.462Z,4.2
2023-03-06T16:57:51.445Z,3.9
2023-03-06T17:07:53.538Z,3.8
2023-03-06T17:17:55.503Z,3.7
2023-03-06T17:27:56.824Z,3.7
2023-03-06T17:37:58.714Z,3.5
2023-03-06T17:48:00.456Z,3.4
2023-03-06T17:58:01.545Z,3.3
2023-03-06T18:08:02.808Z,3.2
2023-03-06T18:18:04.634Z,3.2
2023-03-06T18:28:06.464Z,3.2
2023-03-06T18:38:07.642Z,3
2023-03-06T18:48:09.484Z,3
2023-03-06T18:58:11.503Z,2.8
2023-03-06T19:08:12.808Z,2.7
2023-03-06T19:18:14.256Z,2.7
2023-03-06T19:28:15.788Z,2.9
2023-03-06T19:38:17.449Z,3
2023-03-06T19:48:18.649Z,3.1
2023-03-06T20:08:21.736Z,3
2023-03-06T20:18:23.502Z,3
2023-03-06T20:28:25.048Z,3.1
2023-03-06T20:48:28.548Z,3.1
2023-03-06T20:58:30.545Z,3
2023-03-06T21:08:32.575Z,3.1
2023-03-06T21:18:33.844Z,3.2
2023-03-06T21:28:35.055Z,3.2
2023-03-06T21:38:36.762Z,3.1
2023-03-06T21:48:38.035Z,2.8
2023-03-06T21:58:40.014Z,2.9
2023-03-06T22:08:41.201Z,3
2023-03-06T22:18:42.511Z,2.8
2023-03-06T22:28:44.082Z,2.4
2023-03-06T22:38:45.145Z,2.1
2023-03-06T22:48:46.604Z,2
2023-03-06T22:58:48.423Z,2
2023-03-06T23:08:49.583Z,2
2023-03-06T23:18:51.378Z,2.1
2023-03-06T23:28:53.337Z,2.2
2023-03-06T23:38:55.268Z,2.3
2023-03-06T23:48:56.543Z,2.4
2023-03-06T23:58:58.257Z,2.5
